Jacobabad Weather



Jacobabad's Current Weather

Temprature 35.43o clear sky

clear sky

Rain: 0 %

Min Temprature35.43o
Max Temprature35.43o
Humidity8
Wind Speed3.35 m/h
Sun Rise06:28:02
Sun Set17:54:38
Current Time: 18-Oct-2019 16:19:10
Lat/Lon: 28.29, 68.44




Jacobabad's Geo Location



Jacobabad's Weather Forecast

Time Overall Temp Min Temp Max Temp Humidity Wind Speed Rain
18-Oct-2019 (Fri)
17:00:00 clear sky 34.880 34.880 35.430 8 3.35 m/h 0 %
20:00:00 clear sky 31.280 31.280 31.690 9 4.4 m/h 0 %
23:00:00 clear sky 27.170 27.170 27.448 14 1.13 m/h 0 %
19-Oct-2019 (Sat)
02:00:00 clear sky 26.480 26.480 26.618 14 2.48 m/h 0 %
05:00:00 clear sky 24.583 24.583 24.583 39 2.67 m/h 0 %
08:00:00 clear sky 26.031 26.031 26.031 35 3.17 m/h 0 %
11:00:00 clear sky 32.140 32.140 32.140 22 2.6 m/h 0 %
14:00:00 clear sky 35.086 35.086 35.086 16 3.54 m/h 0 %
17:00:00 clear sky 34.612 34.612 34.612 14 2.46 m/h 0 %
20:00:00 clear sky 30.028 30.028 30.028 17 1.83 m/h 0 %
23:00:00 clear sky 29.127 29.127 29.127 17 2.09 m/h 0 %
20-Oct-2019 (Sun)
02:00:00 scattered clouds 26.017 26.017 26.017 24 0.15 m/h 0 %
05:00:00 few clouds 25.124 25.124 25.124 24 0.64 m/h 0 %
08:00:00 clear sky 28.752 28.752 28.752 21 1.86 m/h 0 %
11:00:00 clear sky 33.640 33.640 33.640 18 1.53 m/h 0 %
14:00:00 clear sky 36.022 36.022 36.022 13 0.92 m/h 0 %
17:00:00 clear sky 35.918 35.918 35.918 12 2.33 m/h 0 %
20:00:00 clear sky 30.612 30.612 30.612 18 2 m/h 0 %
23:00:00 clear sky 29.057 29.057 29.057 19 3.16 m/h 0 %
21-Oct-2019 (Mon)
02:00:00 clear sky 26.880 26.880 26.880 20 2.06 m/h 0 %
05:00:00 clear sky 25.741 25.741 25.741 21 1.86 m/h 0 %
08:00:00 clear sky 28.559 28.559 28.559 19 1.07 m/h 0 %
11:00:00 clear sky 33.487 33.487 33.487 13 1.58 m/h 0 %
14:00:00 clear sky 35.975 35.975 35.975 11 1.96 m/h 0 %
17:00:00 clear sky 35.464 35.464 35.464 11 1.87 m/h 0 %
20:00:00 clear sky 29.314 29.314 29.314 18 0.96 m/h 0 %
23:00:00 clear sky 28.260 28.260 28.260 17 3.06 m/h 0 %
22-Oct-2019 (Tue)
02:00:00 clear sky 26.676 26.676 26.676 19 3.15 m/h 0 %
05:00:00 clear sky 24.659 24.659 24.659 21 1.31 m/h 0 %
08:00:00 clear sky 27.792 27.792 27.792 19 1.63 m/h 0 %
11:00:00 clear sky 33.289 33.289 33.289 12 1.01 m/h 0 %
14:00:00 clear sky 36.109 36.109 36.109 9 2.26 m/h 0 %
17:00:00 clear sky 35.562 35.562 35.562 9 1.9 m/h 0 %
20:00:00 clear sky 29.550 29.550 29.550 15 0.76 m/h 0 %
23:00:00 clear sky 29.779 29.779 29.779 12 2.64 m/h 0 %
23-Oct-2019 (Wed)
02:00:00 clear sky 27.996 27.996 27.996 13 2.81 m/h 0 %
05:00:00 clear sky 24.897 24.897 24.897 20 0.96 m/h 0 %
08:00:00 clear sky 28.639 28.639 28.639 16 1.89 m/h 0 %
11:00:00 clear sky 34.265 34.265 34.265 10 4.4 m/h 0 %
14:00:00 clear sky 36.419 36.419 36.419 7 4.79 m/h 0 %

Famous Cities (61)